sensor_id;sensor_type;location;lat;lon;timestamp;pressure;altitude;pressure_sealevel;temperature;humidity
7337;BME280;54510;42.016;23.098;2023-02-17T00:01:27;-21204.22;;;2.54;nan
7337;BME280;54510;42.016;23.098;2023-02-17T00:03:53;-21205.63;;;2.59;nan
7337;BME280;54510;42.016;23.098;2023-02-17T00:06:22;-21206.75;;;2.63;nan
7337;BME280;54510;42.016;23.098;2023-02-17T00:08:48;-21209.00;;;2.71;nan
7337;BME280;54510;42.016;23.098;2023-02-17T00:11:14;-21206.59;;;2.63;nan
7337;BME280;54510;42.016;23.098;2023-02-17T00:13:40;-21209.00;;;2.71;nan
7337;BME280;54510;42.016;23.098;2023-02-17T00:16:20;-21207.72;;;2.67;nan
7337;BME280;54510;42.016;23.098;2023-02-17T00:18:46;-21208.72;;;2.70;nan
7337;BME280;54510;42.016;23.098;2023-02-17T00:21:17;-21209.41;;;2.73;nan
7337;BME280;54510;42.016;23.098;2023-02-17T00:23:44;-21211.38;;;2.80;nan
7337;BME280;54510;42.016;23.098;2023-02-17T00:26:10;-21209.81;;;2.74;nan
7337;BME280;54510;42.016;23.098;2023-02-17T00:28:36;-21212.63;;;2.85;nan
7337;BME280;54510;42.016;23.098;2023-02-17T00:31:06;-21212.06;;;2.83;nan
7337;BME280;54510;42.016;23.098;2023-02-17T00:33:32;-21209.00;;;2.71;nan
7337;BME280;54510;42.016;23.098;2023-02-17T00:35:58;-21207.72;;;2.67;nan
7337;BME280;54510;42.016;23.098;2023-02-17T00:38:23;-21210.38;;;2.76;nan
7337;BME280;54510;42.016;23.098;2023-02-17T00:40:49;-21207.59;;;2.66;nan
7337;BME280;54510;42.016;23.098;2023-02-17T00:43:14;-21207.88;;;2.67;nan
7337;BME280;54510;42.016;23.098;2023-02-17T00:45:39;-21210.09;;;2.75;nan
7337;BME280;54510;42.016;23.098;2023-02-17T00:48:05;-21210.94;;;2.78;nan
7337;BME280;54510;42.016;23.098;2023-02-17T00:50:30;-21208.72;;;2.70;nan
7337;BME280;54510;42.016;23.098;2023-02-17T00:52:56;-21206.19;;;2.61;nan
7337;BME280;54510;42.016;23.098;2023-02-17T00:55:21;-21206.47;;;2.62;nan
7337;BME280;54510;42.016;23.098;2023-02-17T00:57:46;-21205.22;;;2.58;nan
7337;BME280;54510;42.016;23.098;2023-02-17T01:00:12;-21202.81;;;2.49;nan
7337;BME280;54510;42.016;23.098;2023-02-17T01:02:38;-21202.25;;;2.47;nan
7337;BME280;54510;42.016;23.098;2023-02-17T01:05:03;-21203.81;;;2.53;nan
7337;BME280;54510;42.016;23.098;2023-02-17T01:07:29;-21202.81;;;2.49;nan
7337;BME280;54510;42.016;23.098;2023-02-17T01:09:54;-21201.44;;;2.44;nan
7337;BME280;54510;42.016;23.098;2023-02-17T01:12:20;-21202.41;;;2.48;nan
7337;BME280;54510;42.016;23.098;2023-02-17T01:14:46;-21205.06;;;2.57;nan
7337;BME280;54510;42.016;23.098;2023-02-17T01:17:11;-21204.38;;;2.55;nan
7337;BME280;54510;42.016;23.098;2023-02-17T01:19:37;-21203.94;;;2.53;nan
7337;BME280;54510;42.016;23.098;2023-02-17T01:22:02;-21203.09;;;2.50;nan
7337;BME280;54510;42.016;23.098;2023-02-17T01:24:28;-21201.44;;;2.44;nan
7337;BME280;54510;42.016;23.098;2023-02-17T01:26:53;-21203.38;;;2.51;nan
7337;BME280;54510;42.016;23.098;2023-02-17T01:29:19;-21202.81;;;2.49;nan
7337;BME280;54510;42.016;23.098;2023-02-17T01:31:44;-21200.31;;;2.40;nan
7337;BME280;54510;42.016;23.098;2023-02-17T01:34:10;-21198.75;;;2.34;nan
7337;BME280;54510;42.016;23.098;2023-02-17T01:36:35;-21197.50;;;2.30;nan
7337;BME280;54510;42.016;23.098;2023-02-17T01:39:01;-21194.41;;;2.19;nan
7337;BME280;54510;42.016;23.098;2023-02-17T01:41:27;-21195.53;;;2.23;nan
7337;BME280;54510;42.016;23.098;2023-02-17T01:44:04;-21194.00;;;2.17;nan
7337;BME280;54510;42.016;23.098;2023-02-17T01:46:34;-21194.41;;;2.19;nan
7337;BME280;54510;42.016;23.098;2023-02-17T01:49:02;-21191.91;;;2.10;nan
7337;BME280;54510;42.016;23.098;2023-02-17T01:51:32;-21193.16;;;2.14;nan
7337;BME280;54510;42.016;23.098;2023-02-17T01:54:13;-21193.56;;;2.16;nan
7337;BME280;54510;42.016;23.098;2023-02-17T01:56:42;-21193.84;;;2.17;nan
7337;BME280;54510;42.016;23.098;2023-02-17T01:59:16;-21195.81;;;2.24;nan
7337;BME280;54510;42.016;23.098;2023-02-17T02:01:43;-21194.97;;;2.21;nan
7337;BME280;54510;42.016;23.098;2023-02-17T02:04:09;-21193.84;;;2.17;nan
7337;BME280;54510;42.016;23.098;2023-02-17T02:06:37;-21191.34;;;2.08;nan
7337;BME280;54510;42.016;23.098;2023-02-17T02:09:12;-21191.91;;;2.10;nan
7337;BME280;54510;42.016;23.098;2023-02-17T02:11:39;-21188.13;;;1.96;nan
7337;BME280;54510;42.016;23.098;2023-02-17T02:14:07;-21183.34;;;1.79;nan
7337;BME280;54510;42.016;23.098;2023-02-17T02:22:36;-21191.06;;;2.07;nan
7337;BME280;54510;42.016;23.098;2023-02-17T02:27:52;-21189.78;;;2.02;nan
7337;BME280;54510;42.016;23.098;2023-02-17T02:30:44;-21181.81;;;1.73;nan
7337;BME280;54510;42.016;23.098;2023-02-17T02:33:20;-21182.09;;;1.74;nan
7337;BME280;54510;42.016;23.098;2023-02-17T02:36:19;-21182.50;;;1.76;nan
7337;BME280;54510;42.016;23.098;2023-02-17T02:39:01;-21184.47;;;1.83;nan
7337;BME280;54510;42.016;23.098;2023-02-17T02:43:56;-21184.31;;;1.82;nan
7337;BME280;54510;42.016;23.098;2023-02-17T02:46:22;-21182.50;;;1.76;nan
7337;BME280;54510;42.016;23.098;2023-02-17T02:48:48;-21181.38;;;1.72;nan
7337;BME280;54510;42.016;23.098;2023-02-17T02:51:44;-21182.50;;;1.76;nan
7337;BME280;54510;42.016;23.098;2023-02-17T02:59:45;-21181.38;;;1.72;nan
7337;BME280;54510;42.016;23.098;2023-02-17T03:04:51;-21176.75;;;1.55;nan
7337;BME280;54510;42.016;23.098;2023-02-17T03:07:27;-21177.31;;;1.57;nan
7337;BME280;54510;42.016;23.098;2023-02-17T03:09:55;-21177.75;;;1.58;nan
7337;BME280;54510;42.016;23.098;2023-02-17T03:12:22;-21176.34;;;1.53;nan
7337;BME280;54510;42.016;23.098;2023-02-17T03:14:52;-21173.13;;;1.42;nan
7337;BME280;54510;42.016;23.098;2023-02-17T03:17:19;-21175.50;;;1.50;nan
7337;BME280;54510;42.016;23.098;2023-02-17T03:19:44;-21170.31;;;1.32;nan
7337;BME280;54510;42.016;23.098;2023-02-17T03:22:19;-21171.72;;;1.37;nan
7337;BME280;54510;42.016;23.098;2023-02-17T03:24:45;-21167.66;;;1.22;nan
7337;BME280;54510;42.016;23.098;2023-02-17T03:27:11;-21168.06;;;1.24;nan
7337;BME280;54510;42.016;23.098;2023-02-17T03:29:36;-21165.13;;;1.13;nan
7337;BME280;54510;42.016;23.098;2023-02-17T03:32:02;-21164.41;;;1.10;nan
7337;BME280;54510;42.016;23.098;2023-02-17T03:34:28;-21166.53;;;1.18;nan
7337;BME280;54510;42.016;23.098;2023-02-17T03:36:54;-21166.38;;;1.17;nan
7337;BME280;54510;42.016;23.098;2023-02-17T03:39:19;-21168.19;;;1.24;nan
7337;BME280;54510;42.016;23.098;2023-02-17T03:41:44;-21166.66;;;1.18;nan
7337;BME280;54510;42.016;23.098;2023-02-17T03:44:10;-21166.81;;;1.19;nan
7337;BME280;54510;42.016;23.098;2023-02-17T03:46:38;-21169.47;;;1.29;nan
7337;BME280;54510;42.016;23.098;2023-02-17T03:49:04;-21167.50;;;1.22;nan
7337;BME280;54510;42.016;23.098;2023-02-17T03:51:29;-21164.56;;;1.11;nan
7337;BME280;54510;42.016;23.098;2023-02-17T03:53:55;-21168.34;;;1.25;nan
7337;BME280;54510;42.016;23.098;2023-02-17T03:56:20;-21167.22;;;1.21;nan
7337;BME280;54510;42.016;23.098;2023-02-17T03:58:46;-21170.16;;;1.31;nan
7337;BME280;54510;42.016;23.098;2023-02-17T04:01:12;-21170.31;;;1.32;nan
7337;BME280;54510;42.016;23.098;2023-02-17T04:03:38;-21170.59;;;1.33;nan
7337;BME280;54510;42.016;23.098;2023-02-17T04:06:05;-21169.47;;;1.29;nan
7337;BME280;54510;42.016;23.098;2023-02-17T04:08:31;-21169.75;;;1.30;nan
7337;BME280;54510;42.016;23.098;2023-02-17T04:10:59;-21168.34;;;1.25;nan
7337;BME280;54510;42.016;23.098;2023-02-17T04:13:25;-21166.38;;;1.17;nan
7337;BME280;54510;42.016;23.098;2023-02-17T04:15:52;-21168.63;;;1.26;nan
7337;BME280;54510;42.016;23.098;2023-02-17T04:18:18;-21168.91;;;1.27;nan
7337;BME280;54510;42.016;23.098;2023-02-17T04:20:44;-21170.88;;;1.34;nan
7337;BME280;54510;42.016;23.098;2023-02-17T04:23:11;-21173.66;;;1.44;nan
7337;BME280;54510;42.016;23.098;2023-02-17T04:25:39;-21169.75;;;1.30;nan
7337;BME280;54510;42.016;23.098;2023-02-17T04:28:05;-21170.03;;;1.31;nan
7337;BME280;54510;42.016;23.098;2023-02-17T04:30:30;-21165.81;;;1.15;nan
7337;BME280;54510;42.016;23.098;2023-02-17T04:32:56;-21167.22;;;1.21;nan
7337;BME280;54510;42.016;23.098;2023-02-17T04:35:22;-21171.56;;;1.36;nan
7337;BME280;54510;42.016;23.098;2023-02-17T04:37:47;-21173.25;;;1.42;nan
7337;BME280;54510;42.016;23.098;2023-02-17T04:40:13;-21170.72;;;1.33;nan
7337;BME280;54510;42.016;23.098;2023-02-17T04:42:38;-21168.34;;;1.25;nan
7337;BME280;54510;42.016;23.098;2023-02-17T04:45:05;-21168.63;;;1.26;nan
7337;BME280;54510;42.016;23.098;2023-02-17T04:47:30;-21168.34;;;1.25;nan
7337;BME280;54510;42.016;23.098;2023-02-17T04:49:56;-21163.28;;;1.06;nan
7337;BME280;54510;42.016;23.098;2023-02-17T04:52:21;-21163.56;;;1.07;nan
7337;BME280;54510;42.016;23.098;2023-02-17T04:54:46;-21165.25;;;1.13;nan
7337;BME280;54510;42.016;23.098;2023-02-17T04:57:12;-21169.59;;;1.29;nan
7337;BME280;54510;42.016;23.098;2023-02-17T04:59:37;-21166.25;;;1.17;nan
7337;BME280;54510;42.016;23.098;2023-02-17T05:02:03;-21168.06;;;1.24;nan
7337;BME280;54510;42.016;23.098;2023-02-17T05:04:29;-21164.41;;;1.10;nan
7337;BME280;54510;42.016;23.098;2023-02-17T05:06:55;-21163.28;;;1.06;nan
7337;BME280;54510;42.016;23.098;2023-02-17T05:09:20;-21164.84;;;1.12;nan
7337;BME280;54510;42.016;23.098;2023-02-17T05:11:45;-21169.75;;;1.30;nan
7337;BME280;54510;42.016;23.098;2023-02-17T05:14:11;-21170.31;;;1.32;nan
7337;BME280;54510;42.016;23.098;2023-02-17T05:16:36;-21171.72;;;1.37;nan
7337;BME280;54510;42.016;23.098;2023-02-17T05:19:02;-21171.72;;;1.37;nan
7337;BME280;54510;42.016;23.098;2023-02-17T05:21:27;-21168.19;;;1.24;nan
7337;BME280;54510;42.016;23.098;2023-02-17T05:23:52;-21168.06;;;1.24;nan
7337;BME280;54510;42.016;23.098;2023-02-17T05:26:18;-21165.53;;;1.14;nan
7337;BME280;54510;42.016;23.098;2023-02-17T05:28:43;-21165.97;;;1.16;nan
7337;BME280;54510;42.016;23.098;2023-02-17T05:31:09;-21163.84;;;1.08;nan
7337;BME280;54510;42.016;23.098;2023-02-17T05:33:35;-21163.72;;;1.08;nan
7337;BME280;54510;42.016;23.098;2023-02-17T05:36:04;-21163.44;;;1.07;nan
7337;BME280;54510;42.016;23.098;2023-02-17T05:38:30;-21163.00;;;1.05;nan
7337;BME280;54510;42.016;23.098;2023-02-17T05:40:56;-21161.75;;;1.01;nan
7337;BME280;54510;42.016;23.098;2023-02-17T05:43:21;-21160.47;;;0.96;nan
7337;BME280;54510;42.016;23.098;2023-02-17T05:45:46;-21161.31;;;0.99;nan
7337;BME280;54510;42.016;23.098;2023-02-17T05:48:12;-21159.50;;;0.93;nan
7337;BME280;54510;42.016;23.098;2023-02-17T05:50:38;-21160.47;;;0.96;nan
7337;BME280;54510;42.016;23.098;2023-02-17T05:53:03;-21162.44;;;1.03;nan
7337;BME280;54510;42.016;23.098;2023-02-17T05:55:29;-21167.91;;;1.23;nan
7337;BME280;54510;42.016;23.098;2023-02-17T05:57:54;-21172.28;;;1.39;nan
7337;BME280;54510;42.016;23.098;2023-02-17T06:00:20;-21172.28;;;1.39;nan
7337;BME280;54510;42.016;23.098;2023-02-17T06:02:45;-21168.34;;;1.25;nan
7337;BME280;54510;42.016;23.098;2023-02-17T06:05:11;-21166.66;;;1.18;nan
7337;BME280;54510;42.016;23.098;2023-02-17T06:07:36;-21171.00;;;1.34;nan
7337;BME280;54510;42.016;23.098;2023-02-17T06:10:02;-21173.81;;;1.44;nan
7337;BME280;54510;42.016;23.098;2023-02-17T06:12:27;-21173.53;;;1.43;nan
7337;BME280;54510;42.016;23.098;2023-02-17T06:14:53;-21178.44;;;1.61;nan
7337;BME280;54510;42.016;23.098;2023-02-17T06:17:18;-21183.47;;;1.79;nan
7337;BME280;54510;42.016;23.098;2023-02-17T06:19:44;-21186.00;;;1.88;nan
7337;BME280;54510;42.016;23.098;2023-02-17T06:22:09;-21186.16;;;1.89;nan
7337;BME280;54510;42.016;23.098;2023-02-17T06:24:34;-21184.75;;;1.84;nan
7337;BME280;54510;42.016;23.098;2023-02-17T06:27:00;-21184.31;;;1.82;nan
7337;BME280;54510;42.016;23.098;2023-02-17T06:29:26;-21187.56;;;1.94;nan
7337;BME280;54510;42.016;23.098;2023-02-17T06:31:52;-21187.84;;;1.95;nan
7337;BME280;54510;42.016;23.098;2023-02-17T06:34:17;-21193.00;;;2.14;nan
7337;BME280;54510;42.016;23.098;2023-02-17T06:36:43;-21192.72;;;2.13;nan
7337;BME280;54510;42.016;23.098;2023-02-17T06:39:08;-21194.56;;;2.19;nan
7337;BME280;54510;42.016;23.098;2023-02-17T06:41:34;-21199.75;;;2.38;nan
7337;BME280;54510;42.016;23.098;2023-02-17T06:43:59;-21201.84;;;2.46;nan
7337;BME280;54510;42.016;23.098;2023-02-17T06:46:25;-21203.25;;;2.51;nan
7337;BME280;54510;42.016;23.098;2023-02-17T06:48:50;-21204.38;;;2.55;nan
7337;BME280;54510;42.016;23.098;2023-02-17T06:51:15;-21209.81;;;2.74;nan
7337;BME280;54510;42.016;23.098;2023-02-17T06:53:41;-21215.72;;;2.96;nan
7337;BME280;54510;42.016;23.098;2023-02-17T06:56:06;-21220.75;;;3.14;nan
7337;BME280;54510;42.016;23.098;2023-02-17T06:58:32;-21220.59;;;3.13;nan
7337;BME280;54510;42.016;23.098;2023-02-17T07:00:59;-21221.03;;;3.15;nan
7337;BME280;54510;42.016;23.098;2023-02-17T07:03:25;-21217.94;;;3.04;nan
7337;BME280;54510;42.016;23.098;2023-02-17T07:05:50;-21219.06;;;3.08;nan
7337;BME280;54510;42.016;23.098;2023-02-17T07:08:16;-21222.72;;;3.21;nan
7337;BME280;54510;42.016;23.098;2023-02-17T07:10:41;-21224.09;;;3.26;nan
7337;BME280;54510;42.016;23.098;2023-02-17T07:13:07;-21229.72;;;3.46;nan
7337;BME280;54510;42.016;23.098;2023-02-17T07:15:33;-21232.78;;;3.57;nan
7337;BME280;54510;42.016;23.098;2023-02-17T07:18:00;-21234.03;;;3.62;nan
7337;BME280;54510;42.016;23.098;2023-02-17T07:20:25;-21234.88;;;3.65;nan
7337;BME280;54510;42.016;23.098;2023-02-17T07:22:50;-21237.53;;;3.75;nan
7337;BME280;54510;42.016;23.098;2023-02-17T07:25:16;-21238.94;;;3.80;nan
7337;BME280;54510;42.016;23.098;2023-02-17T07:27:41;-21237.69;;;3.75;nan
7337;BME280;54510;42.016;23.098;2023-02-17T07:30:07;-21238.94;;;3.80;nan
7337;BME280;54510;42.016;23.098;2023-02-17T07:32:33;-21239.22;;;3.81;nan
7337;BME280;54510;42.016;23.098;2023-02-17T07:34:59;-21240.63;;;3.86;nan
7337;BME280;54510;42.016;23.098;2023-02-17T07:37:25;-21245.09;;;4.02;nan
7337;BME280;54510;42.016;23.098;2023-02-17T07:39:50;-21248.88;;;4.16;nan
7337;BME280;54510;42.016;23.098;2023-02-17T07:42:16;-21245.66;;;4.04;nan
7337;BME280;54510;42.016;23.098;2023-02-17T07:44:42;-21245.94;;;4.05;nan
7337;BME280;54510;42.016;23.098;2023-02-17T07:47:07;-21249.28;;;4.17;nan
7337;BME280;54510;42.016;23.098;2023-02-17T07:49:33;-21250.00;;;4.20;nan
7337;BME280;54510;42.016;23.098;2023-02-17T07:51:58;-21253.19;;;4.31;nan
7337;BME280;54510;42.016;23.098;2023-02-17T07:54:24;-21256.13;;;4.42;nan
7337;BME280;54510;42.016;23.098;2023-02-17T07:56:49;-21256.84;;;4.45;nan
7337;BME280;54510;42.016;23.098;2023-02-17T07:59:14;-21254.19;;;4.35;nan
7337;BME280;54510;42.016;23.098;2023-02-17T08:01:40;-21252.09;;;4.27;nan
7337;BME280;54510;42.016;23.098;2023-02-17T08:04:05;-21251.38;;;4.25;nan
7337;BME280;54510;42.016;23.098;2023-02-17T08:06:31;-21249.28;;;4.17;nan
7337;BME280;54510;42.016;23.098;2023-02-17T08:08:57;-21251.81;;;4.26;nan
7337;BME280;54510;42.016;23.098;2023-02-17T08:11:41;-21253.75;;;4.33;nan
7337;BME280;54510;42.016;23.098;2023-02-17T08:14:28;-21254.88;;;4.37;nan
7337;BME280;54510;42.016;23.098;2023-02-17T08:16:53;-21253.91;;;4.34;nan
7337;BME280;54510;42.016;23.098;2023-02-17T08:19:19;-21255.16;;;4.38;nan
7337;BME280;54510;42.016;23.098;2023-02-17T08:21:45;-21260.59;;;4.58;nan
7337;BME280;54510;42.016;23.098;2023-02-17T08:24:11;-21259.06;;;4.53;nan
7337;BME280;54510;42.016;23.098;2023-02-17T08:26:37;-21263.56;;;4.69;nan
7337;BME280;54510;42.016;23.098;2023-02-17T08:29:03;-21264.66;;;4.73;nan
7337;BME280;54510;42.016;23.098;2023-02-17T08:31:33;-21264.25;;;4.71;nan
7337;BME280;54510;42.016;23.098;2023-02-17T08:34:01;-21266.34;;;4.79;nan
7337;BME280;54510;42.016;23.098;2023-02-17T08:36:27;-21265.09;;;4.74;nan
7337;BME280;54510;42.016;23.098;2023-02-17T08:38:53;-21269.13;;;4.89;nan
7337;BME280;54510;42.016;23.098;2023-02-17T08:43:48;-21277.50;;;5.20;nan
7337;BME280;54510;42.016;23.098;2023-02-17T08:46:15;-21272.78;;;5.02;nan
7337;BME280;54510;42.016;23.098;2023-02-17T08:48:41;-21279.19;;;5.26;nan
7337;BME280;54510;42.016;23.098;2023-02-17T08:51:07;-21278.78;;;5.24;nan
7337;BME280;54510;42.016;23.098;2023-02-17T08:53:35;-21283.94;;;5.43;nan
7337;BME280;54510;42.016;23.098;2023-02-17T08:56:01;-21287.56;;;5.56;nan
7337;BME280;54510;42.016;23.098;2023-02-17T08:58:26;-21291.63;;;5.71;nan
7337;BME280;54510;42.016;23.098;2023-02-17T09:00:52;-21295.09;;;5.83;nan
7337;BME280;54510;42.016;23.098;2023-02-17T09:03:17;-21300.13;;;6.02;nan
7337;BME280;54510;42.016;23.098;2023-02-17T09:05:43;-21300.69;;;6.04;nan
7337;BME280;54510;42.016;23.098;2023-02-17T09:08:08;-21301.81;;;6.08;nan
7337;BME280;54510;42.016;23.098;2023-02-17T09:10:35;-21304.03;;;6.16;nan
7337;BME280;54510;42.016;23.098;2023-02-17T09:13:01;-21304.19;;;6.16;nan
7337;BME280;54510;42.016;23.098;2023-02-17T09:15:27;-21304.59;;;6.18;nan
7337;BME280;54510;42.016;23.098;2023-02-17T09:17:52;-21306.69;;;6.25;nan
7337;BME280;54510;42.016;23.098;2023-02-17T09:20:18;-21310.31;;;6.39;nan
7337;BME280;54510;42.016;23.098;2023-02-17T09:22:43;-21313.81;;;6.51;nan
7337;BME280;54510;42.016;23.098;2023-02-17T09:25:09;-21313.94;;;6.52;nan
7337;BME280;54510;42.016;23.098;2023-02-17T09:27:34;-21315.34;;;6.57;nan
7337;BME280;54510;42.016;23.098;2023-02-17T09:30:00;-21318.13;;;6.67;nan
7337;BME280;54510;42.016;23.098;2023-02-17T09:32:26;-21317.84;;;6.66;nan
7337;BME280;54510;42.016;23.098;2023-02-17T09:34:51;-21323.28;;;6.86;nan
7337;BME280;54510;42.016;23.098;2023-02-17T09:37:20;-21327.75;;;7.02;nan
7337;BME280;54510;42.016;23.098;2023-02-17T09:39:47;-21332.22;;;7.18;nan
7337;BME280;54510;42.016;23.098;2023-02-17T09:42:24;-21330.13;;;7.10;nan
7337;BME280;54510;42.016;23.098;2023-02-17T09:44:55;-21334.31;;;7.26;nan
7337;BME280;54510;42.016;23.098;2023-02-17T09:47:52;-21338.06;;;7.39;nan
7337;BME280;54510;42.016;23.098;2023-02-17T09:50:21;-21339.03;;;7.43;nan
7337;BME280;54510;42.016;23.098;2023-02-17T09:52:58;-21350.75;;;7.85;nan
7337;BME280;54510;42.016;23.098;2023-02-17T09:55:30;-21351.44;;;7.88;nan
7337;BME280;54510;42.016;23.098;2023-02-17T10:01:07;-21363.97;;;8.33;nan
7337;BME280;54510;42.016;23.098;2023-02-17T10:03:42;-21369.81;;;8.55;nan
7337;BME280;54510;42.016;23.098;2023-02-17T10:06:28;-21369.97;;;8.55;nan
7337;BME280;54510;42.016;23.098;2023-02-17T10:09:11;-21365.09;;;8.38;nan
7337;BME280;54510;42.016;23.098;2023-02-17T10:11:47;-21368.72;;;8.51;nan
7337;BME280;54510;42.016;23.098;2023-02-17T10:14:23;-21372.19;;;8.63;nan
7337;BME280;54510;42.016;23.098;2023-02-17T10:16:59;-21374.41;;;8.71;nan
7337;BME280;54510;42.016;23.098;2023-02-17T10:19:33;-21382.34;;;9.00;nan
7337;BME280;54510;42.016;23.098;2023-02-17T10:22:06;-21384.56;;;9.08;nan
7337;BME280;54510;42.016;23.098;2023-02-17T10:24:32;-21388.59;;;9.23;nan
7337;BME280;54510;42.016;23.098;2023-02-17T10:27:19;-21392.63;;;9.38;nan
7337;BME280;54510;42.016;23.098;2023-02-17T10:30:00;-21391.94;;;9.35;nan
7337;BME280;54510;42.016;23.098;2023-02-17T10:32:32;-21396.81;;;9.53;nan
7337;BME280;54510;42.016;23.098;2023-02-17T10:35:15;-21401.25;;;9.69;nan
7337;BME280;54510;42.016;23.098;2023-02-17T10:40:18;-21405.97;;;9.86;nan
7337;BME280;54510;42.016;23.098;2023-02-17T10:42:44;-21415.84;;;10.22;nan
7337;BME280;54510;42.016;23.098;2023-02-17T10:47:40;-21420.00;;;10.38;nan
7337;BME280;54510;42.016;23.098;2023-02-17T10:50:26;-21424.59;;;10.54;nan
7337;BME280;54510;42.016;23.098;2023-02-17T10:52:53;-21424.59;;;10.54;nan
7337;BME280;54510;42.016;23.098;2023-02-17T10:57:49;-21426.53;;;10.61;nan
7337;BME280;54510;42.016;23.098;2023-02-17T11:00:18;-21433.75;;;10.88;nan
7337;BME280;54510;42.016;23.098;2023-02-17T11:02:46;-21438.19;;;11.04;nan
7337;BME280;54510;42.016;23.098;2023-02-17T11:05:27;-21444.00;;;11.25;nan
7337;BME280;54510;42.016;23.098;2023-02-17T11:08:05;-21441.50;;;11.16;nan
7337;BME280;54510;42.016;23.098;2023-02-17T11:10:33;-21441.50;;;11.16;nan
7337;BME280;54510;42.016;23.098;2023-02-17T11:13:00;-21444.56;;;11.27;nan
7337;BME280;54510;42.016;23.098;2023-02-17T11:15:43;-21450.25;;;11.48;nan
7337;BME280;54510;42.016;23.098;2023-02-17T11:18:19;-21458.03;;;11.76;nan
7337;BME280;54510;42.016;23.098;2023-02-17T11:20:46;-21458.56;;;11.78;nan
7337;BME280;54510;42.016;23.098;2023-02-17T11:25:41;-21460.66;;;11.86;nan
7337;BME280;54510;42.016;23.098;2023-02-17T11:28:12;-21461.06;;;11.87;nan
7337;BME280;54510;42.016;23.098;2023-02-17T11:30:40;-21463.97;;;11.98;nan
7337;BME280;54510;42.016;23.098;2023-02-17T11:33:20;-21465.66;;;12.04;nan
7337;BME280;54510;42.016;23.098;2023-02-17T11:35:53;-21478.13;;;12.50;nan
7337;BME280;54510;42.016;23.098;2023-02-17T11:38:26;-21480.59;;;12.59;nan
7337;BME280;54510;42.016;23.098;2023-02-17T11:41:02;-21483.66;;;12.70;nan
7337;BME280;54510;42.016;23.098;2023-02-17T11:43:29;-21484.47;;;12.73;nan
7337;BME280;54510;42.016;23.098;2023-02-17T11:46:10;-21486.41;;;12.80;nan
7337;BME280;54510;42.016;23.098;2023-02-17T11:49:05;-21490.16;;;12.94;nan
7337;BME280;54510;42.016;23.098;2023-02-17T11:54:25;-21487.81;;;12.85;nan
7337;BME280;54510;42.016;23.098;2023-02-17T12:00:11;-21497.91;;;13.22;nan
7337;BME280;54510;42.016;23.098;2023-02-17T12:11:10;-21515.19;;;13.85;nan
7337;BME280;54510;42.016;23.098;2023-02-17T12:13:50;-21521.56;;;14.09;nan
7337;BME280;54510;42.016;23.098;2023-02-17T12:19:33;-21526.94;;;14.29;nan
7337;BME280;54510;42.016;23.098;2023-02-17T12:27:31;-21539.81;;;14.76;nan
7337;BME280;54510;42.016;23.098;2023-02-17T12:35:21;-21540.91;;;14.80;nan
7337;BME280;54510;42.016;23.098;2023-02-17T12:37:53;-21544.78;;;14.94;nan
7337;BME280;54510;42.016;23.098;2023-02-17T12:40:49;-21550.31;;;15.14;nan
7337;BME280;54510;42.016;23.098;2023-02-17T12:46:01;-21560.78;;;15.53;nan
7337;BME280;54510;42.016;23.098;2023-02-17T12:48:43;-21560.22;;;15.51;nan
7337;BME280;54510;42.016;23.098;2023-02-17T12:51:23;-21565.88;;;15.71;nan
7337;BME280;54510;42.016;23.098;2023-02-17T12:53:58;-21572.94;;;15.97;nan
7337;BME280;54510;42.016;23.098;2023-02-17T12:59:19;-21584.09;;;16.38;nan
7337;BME280;54510;42.016;23.098;2023-02-17T13:02:04;-21587.81;;;16.52;nan
7337;BME280;54510;42.016;23.098;2023-02-17T13:04:31;-21592.09;;;16.68;nan
7337;BME280;54510;42.016;23.098;2023-02-17T13:07:09;-21596.50;;;16.84;nan
7337;BME280;54510;42.016;23.098;2023-02-17T13:09:41;-21604.22;;;17.12;nan
7337;BME280;54510;42.016;23.098;2023-02-17T13:15:00;-21615.63;;;17.54;nan
7337;BME280;54510;42.016;23.098;2023-02-17T13:17:38;-21614.81;;;17.51;nan
7337;BME280;54510;42.016;23.098;2023-02-17T13:22:36;-21625.25;;;17.90;nan
7337;BME280;54510;42.016;23.098;2023-02-17T13:25:02;-21630.75;;;18.10;nan
7337;BME280;54510;42.016;23.098;2023-02-17T13:30:05;-21645.75;;;18.65;nan
7337;BME280;54510;42.016;23.098;2023-02-17T13:32:35;-21650.41;;;18.82;nan
7337;BME280;54510;42.016;23.098;2023-02-17T13:35:27;-21649.19;;;18.78;nan
7337;BME280;54510;42.016;23.098;2023-02-17T13:37:50;-21654.69;;;18.98;nan
7337;BME280;54510;42.016;23.098;2023-02-17T13:42:46;-21662.09;;;19.25;nan
7337;BME280;54510;42.016;23.098;2023-02-17T13:45:32;-21672.25;;;19.63;nan
7337;BME280;54510;42.016;23.098;2023-02-17T13:50:46;-21679.53;;;19.90;nan
7337;BME280;54510;42.016;23.098;2023-02-17T13:53:39;-21679.13;;;19.88;nan
7337;BME280;54510;42.016;23.098;2023-02-17T13:56:23;-21682.00;;;19.99;nan
7337;BME280;54510;42.016;23.098;2023-02-17T13:58:49;-21684.19;;;20.07;nan
7337;BME280;54510;42.016;23.098;2023-02-17T14:01:25;-21690.91;;;20.32;nan
7337;BME280;54510;42.016;23.098;2023-02-17T14:03:55;-21691.19;;;20.33;nan
7337;BME280;54510;42.016;23.098;2023-02-17T14:06:28;-21700.78;;;20.68;nan
7337;BME280;54510;42.016;23.098;2023-02-17T14:08:55;-21706.25;;;20.88;nan
7337;BME280;54510;42.016;23.098;2023-02-17T14:11:24;-21710.50;;;21.04;nan
7337;BME280;54510;42.016;23.098;2023-02-17T14:13:51;-21711.47;;;21.08;nan
7337;BME280;54510;42.016;23.098;2023-02-17T14:16:35;-21710.38;;;21.04;nan
7337;BME280;54510;42.016;23.098;2023-02-17T14:19:10;-21710.91;;;21.06;nan
7337;BME280;54510;42.016;23.098;2023-02-17T14:21:39;-21710.22;;;21.03;nan
7337;BME280;54510;42.016;23.098;2023-02-17T14:24:04;-21709.94;;;21.02;nan
7337;BME280;54510;42.016;23.098;2023-02-17T14:26:44;-21721.59;;;21.45;nan
7337;BME280;54510;42.016;23.098;2023-02-17T14:29:11;-21738.69;;;22.09;nan
7337;BME280;54510;42.016;23.098;2023-02-17T14:31:44;-21743.47;;;22.26;nan
7337;BME280;54510;42.016;23.098;2023-02-17T14:34:31;-21747.84;;;22.42;nan
7337;BME280;54510;42.016;23.098;2023-02-17T14:37:16;-21755.50;;;22.71;nan
7337;BME280;54510;42.016;23.098;2023-02-17T14:39:41;-21751.13;;;22.55;nan
7337;BME280;54510;42.016;23.098;2023-02-17T14:42:07;-21752.50;;;22.60;nan
7337;BME280;54510;42.016;23.098;2023-02-17T14:44:32;-21742.38;;;22.22;nan
7337;BME280;54510;42.016;23.098;2023-02-17T14:46:58;-21735.56;;;21.97;nan
7337;BME280;54510;42.016;23.098;2023-02-17T14:49:24;-21739.50;;;22.12;nan
7337;BME280;54510;42.016;23.098;2023-02-17T14:51:49;-21738.16;;;22.06;nan